LFKF/FSC METAR and TAF weather

Enter ICAO airport designator
Station Type Date Time Source
LFKF METAR 2019/08/22 15:30 UTC NOAA

LFKF 221530Z AUTO 08008KT 050V120 CAVOK 30/19 Q1017 TEMPO TSRA SCT020CB BKN033


Station Type Date Time Source
LFKF Decoded METAR 2019/08/22 15:30 UTC NOAA

Station name not available
Aug 22, 2019 - 11:30 AM EDT / 2019.08.22 1530 UTC
Wind: from the E (080 degrees) at 9 MPH (8 KT) (direction variable):0
Visibility: greater than 7 mile(s):0
Weather: Cumulonimbus clouds observed
Temperature: 86 F (30 C)
Dew Point: 66 F (19 C)
Relative Humidity: 51%
Pressure (altimeter): 30.03 in. Hg (1017 hPa)
ob: LFKF 221530Z AUTO 08008KT 050V120 CAVOK 30/19 Q1017 TEMPO TSRA SCT020CB BKN033
cycle: 15

Station Type Date Time Source
LFKF TAF 2019/08/22 15:21 UTC NOAA

TAF TAF LFKF 221400Z 2215/2315 06008KT 9999 SCT030 BKN150 PROB40
TEMPO 2215/2315 TSRA SCT020CB BKN033

Example: see airport list